sensor_id;sensor_type;location;lat;lon;timestamp;pressure;altitude;pressure_sealevel;temperature;humidity
13478;BME280;12598;62.382;17.344;2023-02-03T00:00:57;101351.03;;;13.38;18.18
13478;BME280;12598;62.382;17.344;2023-02-03T00:01:58;101348.38;;;13.38;17.89
13478;BME280;12598;62.382;17.344;2023-02-03T00:03:01;101348.38;;;13.38;18.03
13478;BME280;12598;62.382;17.344;2023-02-03T00:04:03;101343.28;;;13.35;17.70
13478;BME280;12598;62.382;17.344;2023-02-03T00:05:05;101341.34;;;13.37;17.88
13478;BME280;12598;62.382;17.344;2023-02-03T00:06:07;101346.66;;;13.37;18.14
13478;BME280;12598;62.382;17.344;2023-02-03T00:07:11;101345.91;;;13.35;18.23
13478;BME280;12598;62.382;17.344;2023-02-03T00:08:15;101353.69;;;13.38;18.19
13478;BME280;12598;62.382;17.344;2023-02-03T00:09:18;101340.06;;;13.30;18.17
13478;BME280;12598;62.382;17.344;2023-02-03T00:10:21;101336.69;;;13.28;18.25
13478;BME280;12598;62.382;17.344;2023-02-03T00:11:24;101341.69;;;13.32;18.01
13478;BME280;12598;62.382;17.344;2023-02-03T00:12:27;101344.75;;;13.27;17.71
13478;BME280;12598;62.382;17.344;2023-02-03T00:13:29;101349.66;;;13.32;17.83
13478;BME280;12598;62.382;17.344;2023-02-03T00:14:31;101336.25;;;13.22;18.14
13478;BME280;12598;62.382;17.344;2023-02-03T00:15:34;101350.69;;;13.30;17.47
13478;BME280;12598;62.382;17.344;2023-02-03T00:16:36;101347.28;;;13.28;17.97
13478;BME280;12598;62.382;17.344;2023-02-03T00:17:38;101341.16;;;13.27;18.04
13478;BME280;12598;62.382;17.344;2023-02-03T00:18:39;101351.78;;;13.27;17.94
13478;BME280;12598;62.382;17.344;2023-02-03T00:19:41;101347.28;;;13.28;18.27
13478;BME280;12598;62.382;17.344;2023-02-03T00:20:43;101353.56;;;13.27;17.64
13478;BME280;12598;62.382;17.344;2023-02-03T00:21:45;101353.69;;;13.26;17.99
13478;BME280;12598;62.382;17.344;2023-02-03T00:22:47;101351.97;;;13.25;17.87
13478;BME280;12598;62.382;17.344;2023-02-03T00:23:49;101351.97;;;13.25;17.91
13478;BME280;12598;62.382;17.344;2023-02-03T00:24:51;101350.28;;;13.24;17.74
13478;BME280;12598;62.382;17.344;2023-02-03T00:25:53;101348.78;;;13.20;17.70
13478;BME280;12598;62.382;17.344;2023-02-03T00:26:54;101346.00;;;13.21;17.78
13478;BME280;12598;62.382;17.344;2023-02-03T00:27:56;101351.22;;;13.23;17.78
13478;BME280;12598;62.382;17.344;2023-02-03T00:28:59;101346.88;;;13.22;18.24
13478;BME280;12598;62.382;17.344;2023-02-03T00:30:01;101347.91;;;13.19;17.77
13478;BME280;12598;62.382;17.344;2023-02-03T00:31:03;101349.53;;;13.22;18.30
13478;BME280;12598;62.382;17.344;2023-02-03T00:32:05;101349.53;;;13.22;17.62
13478;BME280;12598;62.382;17.344;2023-02-03T00:33:07;101333.44;;;13.11;17.77
13478;BME280;12598;62.382;17.344;2023-02-03T00:34:09;101355.78;;;13.21;18.16
13478;BME280;12598;62.382;17.344;2023-02-03T00:35:11;101337.06;;;13.10;18.25
13478;BME280;12598;62.382;17.344;2023-02-03T00:36:13;101346.97;;;13.20;18.03
13478;BME280;12598;62.382;17.344;2023-02-03T00:37:15;101342.16;;;13.13;18.09
13478;BME280;12598;62.382;17.344;2023-02-03T00:38:17;101352.38;;;13.19;17.77
13478;BME280;12598;62.382;17.344;2023-02-03T00:39:18;101343.66;;;13.17;17.63
13478;BME280;12598;62.382;17.344;2023-02-03T00:40:22;101350.66;;;13.18;17.51
13478;BME280;12598;62.382;17.344;2023-02-03T00:41:28;101345.34;;;13.18;17.56
13478;BME280;12598;62.382;17.344;2023-02-03T00:42:30;101346.22;;;13.18;17.33
13478;BME280;12598;62.382;17.344;2023-02-03T00:43:32;101339.22;;;13.17;17.42
13478;BME280;12598;62.382;17.344;2023-02-03T00:44:34;101348.97;;;13.17;18.18
13478;BME280;12598;62.382;17.344;2023-02-03T00:45:36;101340.16;;;13.16;18.20
13478;BME280;12598;62.382;17.344;2023-02-03T00:46:38;101342.81;;;13.16;17.72
13478;BME280;12598;62.382;17.344;2023-02-03T00:47:40;101334.94;;;13.15;17.89
13478;BME280;12598;62.382;17.344;2023-02-03T00:48:42;101341.13;;;13.15;17.45
13478;BME280;12598;62.382;17.344;2023-02-03T00:49:44;101334.09;;;13.14;17.61
13478;BME280;12598;62.382;17.344;2023-02-03T00:50:46;101337.78;;;13.12;17.91
13478;BME280;12598;62.382;17.344;2023-02-03T00:51:49;101334.19;;;13.13;17.77
13478;BME280;12598;62.382;17.344;2023-02-03T00:52:51;101326.84;;;13.04;17.93
13478;BME280;12598;62.382;17.344;2023-02-03T00:53:53;101335.13;;;13.12;17.73
13478;BME280;12598;62.382;17.344;2023-02-03T00:54:56;101327.72;;;13.04;17.58
13478;BME280;12598;62.382;17.344;2023-02-03T00:55:58;101318.25;;;13.00;17.61
13478;BME280;12598;62.382;17.344;2023-02-03T00:57:00;101331.09;;;13.06;17.69
13478;BME280;12598;62.382;17.344;2023-02-03T00:58:01;101330.16;;;13.07;17.95
13478;BME280;12598;62.382;17.344;2023-02-03T00:59:04;101337.91;;;13.10;17.58
13478;BME280;12598;62.382;17.344;2023-02-03T01:00:07;101335.34;;;13.09;17.46
13478;BME280;12598;62.382;17.344;2023-02-03T01:01:09;101341.53;;;13.09;18.12
13478;BME280;12598;62.382;17.344;2023-02-03T01:02:12;101340.66;;;13.09;18.16
13478;BME280;12598;62.382;17.344;2023-02-03T01:03:15;101338.00;;;13.09;17.78
13478;BME280;12598;62.382;17.344;2023-02-03T01:04:17;101327.72;;;13.04;17.93
13478;BME280;12598;62.382;17.344;2023-02-03T01:05:19;101326.84;;;13.04;17.84
13478;BME280;12598;62.382;17.344;2023-02-03T01:06:21;101325.81;;;13.06;17.36
13478;BME280;12598;62.382;17.344;2023-02-03T01:07:22;101318.88;;;13.04;17.53
13478;BME280;12598;62.382;17.344;2023-02-03T01:08:24;101322.50;;;13.03;17.60
13478;BME280;12598;62.382;17.344;2023-02-03T01:09:26;101313.03;;;12.99;17.46
13478;BME280;12598;62.382;17.344;2023-02-03T01:10:29;101325.88;;;13.05;17.91
13478;BME280;12598;62.382;17.344;2023-02-03T01:11:31;101323.22;;;13.05;18.16
13478;BME280;12598;62.382;17.344;2023-02-03T01:12:33;101323.34;;;13.03;17.50
13478;BME280;12598;62.382;17.344;2023-02-03T01:13:35;101316.63;;;12.98;17.73
13478;BME280;12598;62.382;17.344;2023-02-03T01:14:41;101320.78;;;13.02;18.12
13478;BME280;12598;62.382;17.344;2023-02-03T01:15:47;101316.63;;;12.98;17.66
13478;BME280;12598;62.382;17.344;2023-02-03T01:16:49;101322.59;;;13.01;17.59
13478;BME280;12598;62.382;17.344;2023-02-03T01:17:51;101327.91;;;13.01;17.66
13478;BME280;12598;62.382;17.344;2023-02-03T01:18:54;101329.69;;;13.01;17.51
13478;BME280;12598;62.382;17.344;2023-02-03T01:19:56;101324.50;;;12.99;18.01
13478;BME280;12598;62.382;17.344;2023-02-03T01:21:03;101319.50;;;12.95;17.38
13478;BME280;12598;62.382;17.344;2023-02-03T01:22:06;101314.19;;;12.95;17.58
13478;BME280;12598;62.382;17.344;2023-02-03T01:23:08;101311.63;;;12.93;17.52
13478;BME280;12598;62.382;17.344;2023-02-03T01:24:09;101310.50;;;12.97;18.00
13478;BME280;12598;62.382;17.344;2023-02-03T01:25:12;101322.03;;;12.96;18.14
13478;BME280;12598;62.382;17.344;2023-02-03T01:26:16;101317.78;;;12.94;17.98
13478;BME280;12598;62.382;17.344;2023-02-03T01:27:18;101320.44;;;12.94;18.07
13478;BME280;12598;62.382;17.344;2023-02-03T01:28:20;101319.59;;;12.93;18.04
13478;BME280;12598;62.382;17.344;2023-02-03T01:29:22;101317.97;;;12.91;17.83
13478;BME280;12598;62.382;17.344;2023-02-03T01:30:24;101315.50;;;12.88;17.72
13478;BME280;12598;62.382;17.344;2023-02-03T01:31:29;101325.06;;;12.90;17.49
13478;BME280;12598;62.382;17.344;2023-02-03T01:32:32;101311.38;;;12.84;17.49
13478;BME280;12598;62.382;17.344;2023-02-03T01:33:34;101328.59;;;12.91;18.08
13478;BME280;12598;62.382;17.344;2023-02-03T01:34:36;101311.38;;;12.84;17.51
13478;BME280;12598;62.382;17.344;2023-02-03T01:35:39;101323.28;;;12.91;17.75
13478;BME280;12598;62.382;17.344;2023-02-03T01:36:43;101304.34;;;12.83;17.68
13478;BME280;12598;62.382;17.344;2023-02-03T01:37:47;101311.16;;;12.87;17.90
13478;BME280;12598;62.382;17.344;2023-02-03T01:38:49;101313.06;;;12.85;17.80
13478;BME280;12598;62.382;17.344;2023-02-03T01:39:51;101317.22;;;12.89;17.59
13478;BME280;12598;62.382;17.344;2023-02-03T01:40:53;101314.03;;;12.84;17.93
13478;BME280;12598;62.382;17.344;2023-02-03T01:41:55;101295.28;;;12.73;17.62
13478;BME280;12598;62.382;17.344;2023-02-03T01:42:57;101321.97;;;12.84;17.51
13478;BME280;12598;62.382;17.344;2023-02-03T01:44:00;101309.00;;;12.79;17.64
13478;BME280;12598;62.382;17.344;2023-02-03T01:45:03;101322.72;;;12.86;17.84
13478;BME280;12598;62.382;17.344;2023-02-03T01:47:36;101290.72;;;12.75;17.59
13478;BME280;12598;62.382;17.344;2023-02-03T01:48:41;101317.03;;;12.92;17.33
13478;BME280;12598;62.382;17.344;2023-02-03T01:49:47;101289.97;;;12.73;17.90
13478;BME280;12598;62.382;17.344;2023-02-03T01:50:50;101308.50;;;12.87;18.07
13478;BME280;12598;62.382;17.344;2023-02-03T01:51:52;101310.28;;;12.86;17.56
13478;BME280;12598;62.382;17.344;2023-02-03T01:53:03;101306.81;;;12.86;17.99
13478;BME280;12598;62.382;17.344;2023-02-03T01:54:29;101297.03;;;12.86;17.69
13478;BME280;12598;62.382;17.344;2023-02-03T01:55:37;101308.31;;;12.90;17.28
13478;BME280;12598;62.382;17.344;2023-02-03T01:56:44;101304.91;;;12.88;17.22
13478;BME280;12598;62.382;17.344;2023-02-03T01:57:51;101308.50;;;12.87;17.78
13478;BME280;12598;62.382;17.344;2023-02-03T01:58:55;101300.97;;;12.81;17.73
13478;BME280;12598;62.382;17.344;2023-02-03T01:59:58;101301.91;;;12.80;17.37
13478;BME280;12598;62.382;17.344;2023-02-03T02:01:01;101302.66;;;12.82;17.30
13478;BME280;12598;62.382;17.344;2023-02-03T02:02:04;101300.22;;;12.79;17.54
13478;BME280;12598;62.382;17.344;2023-02-03T02:03:07;101299.34;;;12.78;17.96
13478;BME280;12598;62.382;17.344;2023-02-03T02:04:10;101292.53;;;12.74;17.45
13478;BME280;12598;62.382;17.344;2023-02-03T02:05:21;101307.41;;;12.77;17.60
13478;BME280;12598;62.382;17.344;2023-02-03T02:06:26;101300.41;;;12.76;17.53
13478;BME280;12598;62.382;17.344;2023-02-03T02:07:28;101295.09;;;12.76;17.34
13478;BME280;12598;62.382;17.344;2023-02-03T02:08:32;101298.59;;;12.76;17.35
13478;BME280;12598;62.382;17.344;2023-02-03T02:09:34;101296.03;;;12.75;17.78
13478;BME280;12598;62.382;17.344;2023-02-03T02:10:37;101298.69;;;12.75;17.86
13478;BME280;12598;62.382;17.344;2023-02-03T02:11:39;101289.44;;;12.68;17.77
13478;BME280;12598;62.382;17.344;2023-02-03T02:12:42;101296.97;;;12.74;17.21
13478;BME280;12598;62.382;17.344;2023-02-03T02:13:44;101295.28;;;12.73;17.35
13478;BME280;12598;62.382;17.344;2023-02-03T02:14:47;101280.84;;;12.64;17.74
13478;BME280;12598;62.382;17.344;2023-02-03T02:15:59;101298.88;;;12.72;17.83
13478;BME280;12598;62.382;17.344;2023-02-03T02:17:21;101280.50;;;12.69;17.55
13478;BME280;12598;62.382;17.344;2023-02-03T02:26:56;101282.59;;;12.78;17.46
13478;BME280;12598;62.382;17.344;2023-02-03T02:30:41;101281.91;;;12.74;17.08
13478;BME280;12598;62.382;17.344;2023-02-03T02:32:15;101290.53;;;12.78;17.27
13478;BME280;12598;62.382;17.344;2023-02-03T02:37:29;101265.88;;;12.63;17.64
13478;BME280;12598;62.382;17.344;2023-02-03T02:38:59;101287.44;;;12.71;17.57
13478;BME280;12598;62.382;17.344;2023-02-03T02:41:23;101278.06;;;12.66;17.67
13478;BME280;12598;62.382;17.344;2023-02-03T02:42:33;101279.75;;;12.67;17.63
13478;BME280;12598;62.382;17.344;2023-02-03T02:43:52;101273.63;;;12.66;17.57
13478;BME280;12598;62.382;17.344;2023-02-03T02:45:05;101281.66;;;12.65;17.35
13478;BME280;12598;62.382;17.344;2023-02-03T02:46:23;101278.06;;;12.66;17.77
13478;BME280;12598;62.382;17.344;2023-02-03T02:47:28;101272.97;;;12.63;17.81
13478;BME280;12598;62.382;17.344;2023-02-03T02:48:35;101273.38;;;12.57;17.48
13478;BME280;12598;62.382;17.344;2023-02-03T02:49:41;101273.16;;;12.60;17.02
13478;BME280;12598;62.382;17.344;2023-02-03T02:50:47;101277.72;;;12.58;16.90
13478;BME280;12598;62.382;17.344;2023-02-03T02:51:51;101262.41;;;12.49;17.52
13478;BME280;12598;62.382;17.344;2023-02-03T02:52:54;101278.69;;;12.57;17.04
13478;BME280;12598;62.382;17.344;2023-02-03T02:54:00;101273.56;;;12.54;17.43
13478;BME280;12598;62.382;17.344;2023-02-03T02:55:12;101271.00;;;12.52;17.49
13478;BME280;12598;62.382;17.344;2023-02-03T02:56:17;101278.78;;;12.55;16.99
13478;BME280;12598;62.382;17.344;2023-02-03T02:57:23;101281.44;;;12.55;17.43
13478;BME280;12598;62.382;17.344;2023-02-03T02:58:28;101275.28;;;12.55;17.65
13478;BME280;12598;62.382;17.344;2023-02-03T02:59:30;101275.28;;;12.55;17.54
13478;BME280;12598;62.382;17.344;2023-02-03T03:00:34;101278.88;;;12.54;16.95
13478;BME280;12598;62.382;17.344;2023-02-03T03:01:36;101281.53;;;12.54;17.04
13478;BME280;12598;62.382;17.344;2023-02-03T03:02:38;101274.53;;;12.53;16.95
13478;BME280;12598;62.382;17.344;2023-02-03T03:03:40;101275.97;;;12.44;17.18
13478;BME280;12598;62.382;17.344;2023-02-03T03:04:47;101263.66;;;12.43;17.15
13478;BME280;12598;62.382;17.344;2023-02-03T03:05:54;101280.78;;;12.52;17.22
13478;BME280;12598;62.382;17.344;2023-02-03T03:07:08;101272.69;;;12.53;17.47
13478;BME280;12598;62.382;17.344;2023-02-03T03:08:13;101271.75;;;12.54;17.59
13478;BME280;12598;62.382;17.344;2023-02-03T03:09:39;101275.06;;;12.58;17.12
13478;BME280;12598;62.382;17.344;2023-02-03T03:10:43;101264.88;;;12.52;17.39
13478;BME280;12598;62.382;17.344;2023-02-03T03:11:49;101275.28;;;12.55;17.48
13478;BME280;12598;62.382;17.344;2023-02-03T03:12:54;101277.19;;;12.53;17.33
13478;BME280;12598;62.382;17.344;2023-02-03T03:13:59;101278.13;;;12.52;17.20
13478;BME280;12598;62.382;17.344;2023-02-03T03:15:07;101270.16;;;12.52;16.79
13478;BME280;12598;62.382;17.344;2023-02-03T03:16:13;101268.66;;;12.48;17.04
13478;BME280;12598;62.382;17.344;2023-02-03T03:17:25;101273.78;;;12.51;16.89
13478;BME280;12598;62.382;17.344;2023-02-03T03:18:43;101263.38;;;12.48;16.87
13478;BME280;12598;62.382;17.344;2023-02-03T03:19:50;101259.09;;;12.45;17.19
13478;BME280;12598;62.382;17.344;2023-02-03T03:20:55;101264.88;;;12.52;17.08
13478;BME280;12598;62.382;17.344;2023-02-03T03:22:05;101259.66;;;12.50;16.81
13478;BME280;12598;62.382;17.344;2023-02-03T03:23:18;101264.00;;;12.51;17.46
13478;BME280;12598;62.382;17.344;2023-02-03T03:24:27;101264.00;;;12.51;17.38
13478;BME280;12598;62.382;17.344;2023-02-03T03:25:35;101260.06;;;12.44;17.54
13478;BME280;12598;62.382;17.344;2023-02-03T03:26:51;101273.66;;;12.52;17.33
13478;BME280;12598;62.382;17.344;2023-02-03T03:28:02;101265.69;;;12.52;17.44
13478;BME280;12598;62.382;17.344;2023-02-03T03:29:14;101248.81;;;12.41;16.88
13478;BME280;12598;62.382;17.344;2023-02-03T03:30:25;101259.75;;;12.49;16.76
13478;BME280;12598;62.382;17.344;2023-02-03T03:31:28;101261.47;;;12.50;17.03
13478;BME280;12598;62.382;17.344;2023-02-03T03:32:30;101262.63;;;12.46;17.03
13478;BME280;12598;62.382;17.344;2023-02-03T03:33:33;101264.53;;;12.44;17.55
13478;BME280;12598;62.382;17.344;2023-02-03T03:34:35;101254.84;;;12.43;16.70
13478;BME280;12598;62.382;17.344;2023-02-03T03:35:45;101258.47;;;12.42;16.84
13478;BME280;12598;62.382;17.344;2023-02-03T03:37:05;101266.22;;;12.45;16.79
13478;BME280;12598;62.382;17.344;2023-02-03T03:38:15;101245.50;;;12.37;17.29
13478;BME280;12598;62.382;17.344;2023-02-03T03:40:51;101259.00;;;12.47;17.35
13478;BME280;12598;62.382;17.344;2023-02-03T03:41:59;101267.91;;;12.46;16.74
13478;BME280;12598;62.382;17.344;2023-02-03T03:43:14;101258.47;;;12.42;17.22
13478;BME280;12598;62.382;17.344;2023-02-03T03:44:17;101259.22;;;12.44;17.37
13478;BME280;12598;62.382;17.344;2023-02-03T03:45:26;101262.06;;;12.41;16.75
13478;BME280;12598;62.382;17.344;2023-02-03T03:46:34;101268.31;;;12.40;16.76
13478;BME280;12598;62.382;17.344;2023-02-03T03:47:58;101266.63;;;12.39;17.31
13478;BME280;12598;62.382;17.344;2023-02-03T03:49:04;101267.38;;;12.41;16.65
13478;BME280;12598;62.382;17.344;2023-02-03T03:50:11;101240.78;;;12.28;16.80
13478;BME280;12598;62.382;17.344;2023-02-03T03:51:24;101245.63;;;12.22;16.59
13478;BME280;12598;62.382;17.344;2023-02-03T03:52:31;101257.44;;;12.30;17.29
13478;BME280;12598;62.382;17.344;2023-02-03T03:53:37;101261.81;;;12.31;17.26
13478;BME280;12598;62.382;17.344;2023-02-03T03:54:41;101261.81;;;12.31;17.35
13478;BME280;12598;62.382;17.344;2023-02-03T03:55:47;101269.63;;;12.33;16.87
13478;BME280;12598;62.382;17.344;2023-02-03T03:57:35;101272.69;;;12.41;17.43
13478;BME280;12598;62.382;17.344;2023-02-03T03:58:42;101282.34;;;12.42;17.04
13478;BME280;12598;62.382;17.344;2023-02-03T03:59:47;101266.25;;;12.31;16.81
13478;BME280;12598;62.382;17.344;2023-02-03T04:00:53;101281.03;;;12.35;17.15
13478;BME280;12598;62.382;17.344;2023-02-03T04:01:58;101273.44;;;12.29;16.87
13478;BME280;12598;62.382;17.344;2023-02-03T04:03:11;101268.34;;;12.26;17.32
13478;BME280;12598;62.382;17.344;2023-02-03T04:04:15;101280.25;;;12.33;17.08
13478;BME280;12598;62.382;17.344;2023-02-03T04:05:18;101283.84;;;12.32;16.81
13478;BME280;12598;62.382;17.344;2023-02-03T04:06:20;101282.16;;;12.31;16.72
13478;BME280;12598;62.382;17.344;2023-02-03T04:07:22;101281.38;;;12.29;16.63
13478;BME280;12598;62.382;17.344;2023-02-03T04:08:24;101288.50;;;12.28;17.43
13478;BME280;12598;62.382;17.344;2023-02-03T04:09:27;101289.66;;;12.24;17.00
13478;BME280;12598;62.382;17.344;2023-02-03T04:10:37;101284.25;;;12.26;16.75
13478;BME280;12598;62.382;17.344;2023-02-03T04:11:39;101288.50;;;12.28;16.94
13478;BME280;12598;62.382;17.344;2023-02-03T04:13:00;101287.44;;;12.31;16.84
13478;BME280;12598;62.382;17.344;2023-02-03T04:14:02;101292.94;;;12.28;16.59
13478;BME280;12598;62.382;17.344;2023-02-03T04:15:04;101251.91;;;12.07;16.56
13478;BME280;12598;62.382;17.344;2023-02-03T04:16:06;101264.22;;;12.08;17.30
13478;BME280;12598;62.382;17.344;2023-02-03T04:17:08;101287.41;;;12.18;16.86
13478;BME280;12598;62.382;17.344;2023-02-03T04:18:12;101278.91;;;12.13;17.03
13478;BME280;12598;62.382;17.344;2023-02-03T04:19:14;101292.59;;;12.20;16.86
13478;BME280;12598;62.382;17.344;2023-02-03T04:20:16;101294.22;;;12.22;16.56
13478;BME280;12598;62.382;17.344;2023-02-03T04:21:20;101298.66;;;12.22;16.82
13478;BME280;12598;62.382;17.344;2023-02-03T04:22:22;101294.28;;;12.21;16.93
13478;BME280;12598;62.382;17.344;2023-02-03T04:23:24;101296.94;;;12.21;17.47
13478;BME280;12598;62.382;17.344;2023-02-03T04:24:26;101295.44;;;12.17;16.98
13478;BME280;12598;62.382;17.344;2023-02-03T04:25:27;101301.41;;;12.20;16.70
13478;BME280;12598;62.382;17.344;2023-02-03T04:26:29;101302.25;;;12.21;16.92
13478;BME280;12598;62.382;17.344;2023-02-03T04:27:31;101301.41;;;12.20;16.92
13478;BME280;12598;62.382;17.344;2023-02-03T04:28:33;101288.63;;;12.13;16.81
13478;BME280;12598;62.382;17.344;2023-02-03T04:29:35;101298.84;;;12.19;16.95
13478;BME280;12598;62.382;17.344;2023-02-03T04:30:37;101305.00;;;12.19;16.89
13478;BME280;12598;62.382;17.344;2023-02-03T04:31:38;101298.00;;;12.18;17.26
13478;BME280;12598;62.382;17.344;2023-02-03T04:32:40;101298.00;;;12.18;16.74
13478;BME280;12598;62.382;17.344;2023-02-03T04:33:42;101301.59;;;12.17;16.52
13478;BME280;12598;62.382;17.344;2023-02-03T04:34:45;101306.03;;;12.17;17.17
13478;BME280;12598;62.382;17.344;2023-02-03T04:35:46;101309.56;;;12.17;17.29
13478;BME280;12598;62.382;17.344;2023-02-03T04:36:48;101306.03;;;12.17;16.67
13478;BME280;12598;62.382;17.344;2023-02-03T04:37:50;101304.34;;;12.16;16.55
13478;BME280;12598;62.382;17.344;2023-02-03T04:38:52;101305.19;;;12.16;16.63
13478;BME280;12598;62.382;17.344;2023-02-03T04:39:54;101317.59;;;12.16;16.75
13478;BME280;12598;62.382;17.344;2023-02-03T04:40:56;101311.47;;;12.15;16.61
13478;BME280;12598;62.382;17.344;2023-02-03T04:41:58;101322.13;;;12.14;17.27
13478;BME280;12598;62.382;17.344;2023-02-03T04:43:05;101322.13;;;12.14;17.35
13478;BME280;12598;62.382;17.344;2023-02-03T04:44:07;101314.09;;;12.15;16.96
13478;BME280;12598;62.382;17.344;2023-02-03T04:45:11;101310.09;;;12.08;17.11
13478;BME280;12598;62.382;17.344;2023-02-03T04:46:13;101312.56;;;12.11;17.06
13478;BME280;12598;62.382;17.344;2023-02-03T04:47:15;101316.84;;;12.14;16.59
13478;BME280;12598;62.382;17.344;2023-02-03T04:48:17;101315.13;;;12.13;16.45
13478;BME280;12598;62.382;17.344;2023-02-03T04:49:18;101320.44;;;12.13;16.69
13478;BME280;12598;62.382;17.344;2023-02-03T04:50:20;101322.34;;;12.11;17.16
13478;BME280;12598;62.382;17.344;2023-02-03T04:51:22;101278.81;;;11.87;17.02
13478;BME280;12598;62.382;17.344;2023-02-03T04:52:24;101316.09;;;12.12;16.94
13478;BME280;12598;62.382;17.344;2023-02-03T04:53:26;101308.72;;;12.03;17.08
13478;BME280;12598;62.382;17.344;2023-02-03T04:54:28;101310.03;;;12.10;17.11
13478;BME280;12598;62.382;17.344;2023-02-03T04:55:30;101315.34;;;12.10;17.25
13478;BME280;12598;62.382;17.344;2023-02-03T04:56:32;101316.56;;;12.04;16.62
13478;BME280;12598;62.382;17.344;2023-02-03T04:57:33;101317.97;;;12.10;17.17
13478;BME280;12598;62.382;17.344;2023-02-03T04:58:36;101317.13;;;12.09;16.64
13478;BME280;12598;62.382;17.344;2023-02-03T04:59:38;101323.28;;;12.10;16.91
13478;BME280;12598;62.382;17.344;2023-02-03T05:00:40;101312.13;;;12.05;16.88
13478;BME280;12598;62.382;17.344;2023-02-03T05:01:42;101294.34;;;11.93;16.88
13478;BME280;12598;62.382;17.344;2023-02-03T05:02:43;101323.28;;;12.10;17.16
13478;BME280;12598;62.382;17.344;2023-02-03T05:03:45;101318.94;;;12.09;16.84
13478;BME280;12598;62.382;17.344;2023-02-03T05:04:47;101326.13;;;12.07;17.34
13478;BME280;12598;62.382;17.344;2023-02-03T05:05:49;101322.53;;;12.08;17.26
13478;BME280;12598;62.382;17.344;2023-02-03T05:06:51;101304.63;;;11.97;17.09
13478;BME280;12598;62.382;17.344;2023-02-03T05:07:53;101329.72;;;12.06;17.18
13478;BME280;12598;62.382;17.344;2023-02-03T05:08:55;101324.44;;;12.06;16.77
13478;BME280;12598;62.382;17.344;2023-02-03T05:09:57;101324.44;;;12.06;17.14
13478;BME280;12598;62.382;17.344;2023-02-03T05:10:59;101328.84;;;12.05;16.51
13478;BME280;12598;62.382;17.344;2023-02-03T05:12:02;101329.72;;;12.06;17.28
13478;BME280;12598;62.382;17.344;2023-02-03T05:13:04;101326.31;;;12.04;16.53
13478;BME280;12598;62.382;17.344;2023-02-03T05:14:06;101331.63;;;12.04;17.07
13478;BME280;12598;62.382;17.344;2023-02-03T05:15:08;101331.63;;;12.04;17.03
13478;BME280;12598;62.382;17.344;2023-02-03T05:16:10;101325.66;;;12.00;17.33
13478;BME280;12598;62.382;17.344;2023-02-03T05:17:12;101335.22;;;12.03;17.19
13478;BME280;12598;62.382;17.344;2023-02-03T05:18:14;101325.94;;;11.96;16.90
13478;BME280;12598;62.382;17.344;2023-02-03T05:19:16;101333.50;;;12.02;16.77
13478;BME280;12598;62.382;17.344;2023-02-03T05:20:18;101339.66;;;12.02;17.00
13478;BME280;12598;62.382;17.344;2023-02-03T05:21:19;101337.94;;;12.01;16.79
13478;BME280;12598;62.382;17.344;2023-02-03T05:22:21;101341.47;;;12.02;16.63
13478;BME280;12598;62.382;17.344;2023-02-03T05:23:23;101339.75;;;12.01;16.60
13478;BME280;12598;62.382;17.344;2023-02-03T05:24:25;101344.13;;;12.02;16.42
13478;BME280;12598;62.382;17.344;2023-02-03T05:25:27;101340.72;;;12.00;16.79
13478;BME280;12598;62.382;17.344;2023-02-03T05:26:29;101334.53;;;11.99;17.08
13478;BME280;12598;62.382;17.344;2023-02-03T05:27:31;101347.72;;;12.01;17.28
13478;BME280;12598;62.382;17.344;2023-02-03T05:28:33;101326.41;;;11.88;17.13
13478;BME280;12598;62.382;17.344;2023-02-03T05:29:35;101326.16;;;11.93;17.08
13478;BME280;12598;62.382;17.344;2023-02-03T05:30:36;101334.84;;;11.95;17.08
13478;BME280;12598;62.382;17.344;2023-02-03T05:31:38;101351.31;;;12.00;16.67
13478;BME280;12598;62.382;17.344;2023-02-03T05:32:40;101338.91;;;12.00;17.17
13478;BME280;12598;62.382;17.344;2023-02-03T05:33:42;101348.66;;;12.00;16.90
13478;BME280;12598;62.382;17.344;2023-02-03T05:34:44;101346.09;;;11.98;16.47
13478;BME280;12598;62.382;17.344;2023-02-03T05:35:48;101346.97;;;11.99;16.38
13478;BME280;12598;62.382;17.344;2023-02-03T05:36:50;101350.56;;;11.98;17.09
13478;BME280;12598;62.382;17.344;2023-02-03T05:37:52;101349.59;;;11.99;16.73
13478;BME280;12598;62.382;17.344;2023-02-03T05:38:53;101341.16;;;11.92;16.94
13478;BME280;12598;62.382;17.344;2023-02-03T05:39:55;101351.50;;;11.97;17.22
13478;BME280;12598;62.382;17.344;2023-02-03T05:41:17;101346.78;;;12.02;17.04
13478;BME280;12598;62.382;17.344;2023-02-03T05:42:37;101330.31;;;11.97;17.00
13478;BME280;12598;62.382;17.344;2023-02-03T05:43:39;101349.41;;;12.02;17.26
13478;BME280;12598;62.382;17.344;2023-02-03T05:44:41;101350.38;;;12.01;17.11
13478;BME280;12598;62.382;17.344;2023-02-03T05:45:43;101350.44;;;11.99;17.02
13478;BME280;12598;62.382;17.344;2023-02-03T05:46:45;101351.50;;;11.97;17.28
13478;BME280;12598;62.382;17.344;2023-02-03T05:47:47;101350.56;;;11.98;17.36
13478;BME280;12598;62.382;17.344;2023-02-03T05:48:49;101350.63;;;11.96;16.80
13478;BME280;12598;62.382;17.344;2023-02-03T05:49:50;101348.19;;;11.93;16.97
13478;BME280;12598;62.382;17.344;2023-02-03T05:50:52;101346.19;;;11.97;17.02
13478;BME280;12598;62.382;17.344;2023-02-03T05:51:55;101351.50;;;11.97;16.43
13478;BME280;12598;62.382;17.344;2023-02-03T05:53:01;101353.28;;;11.96;17.16